Weather observations for the past three days for
New Stuyahok
Metric (Imperial)
Date Time (akdt) Wind (kph) Vis. (km) Weather Sky Cond. Temperature (ºC) Relative Humidity Wind Chill (°C) Heat Index (°C) Pressure Precipitation (cm)
Air Dwpt 6 hour altimeter (cm) sea level (mb) 1 hr 3 hr 6 hr
Max. Min.
08 00:56 E 11 16.09 A Few Clouds FEW085 1.1 -1.1 85% -2 75.84 1011.7
07 23:56 E 13 16.09 Fair CLR 2.2 -2.2 73% -1 75.84 1012.0
07 22:56 SW 9 16.09 Partly Cloudy SCT085 3.9 -4.4 55% 2 75.87 1012.1
07 21:56 Calm 16.09 Overcast OVC060 7.8 -7.2 8.9 6.7 34% 75.87 1012.1
07 20:56 Calm 12.87 Overcast OVC060 7.8 -3.9 44% 75.9 1012.4
07 19:56 Vrbl 7 16.09 A Few Clouds FEW090 7.8 -3.9 44% 7 75.92 1012.8
07 18:56 Calm 16.09 Overcast OVC090 8.3 -3.9 42% 75.95 1013.3
07 17:56 Vrbl 7 16.09 Mostly Cloudy BKN090 7.8 -4.4 42% 7 76 1013.8
07 16:56 E 15 16.09 Overcast OVC090 7.2 -5 42% 5 76.05 1014.5
07 15:56 Calm 16.09 Overcast OVC085 6.7 -8.9 7.2 -0.6 32% 76.1 1015.2
07 14:56 Calm 16.09 Overcast OVC090 5.6 -6.1 43% 76.15 1015.8
07 13:56 SE 11 16.09 Overcast OVC090 5 -5 49% 3 76.17 1016.4
07 12:56 Vrbl 9 16.09 Overcast OVC085 3.3 -3.9 60% 1 76.2 1016.8
07 11:56 E 7 16.09 Mostly Cloudy BKN085 2.2 -3.3 67% 0 76.25 1017.2
07 10:56 Vrbl 6 16.09 Overcast SCT009 OVC085 1.7 -2.8 72% 76.28 1017.5
07 09:56 Vrbl 6 16.09 Overcast OVC007 -0.6 -2.2 -0.6 -2.2 89% 76.28 1017.6
07 08:56 S 9 16.09 Overcast OVC005 -1.1 -1.7 96% -4 76.28 1017.7
07 07:56 S 7 16.09 Overcast OVC003 -1.7 -1.7 100% -4 76.28 1017.7
07 06:56 Calm 14.48 Overcast OVC003 -1.7 -2.2 96% 76.28 1017.8
07 05:56 Calm 16.09 Overcast OVC003 -2.2 -2.2 100% 76.3 1018.1
07 04:56 S 6 16.09 Overcast OVC090 -2.2 -2.8 96% 76.3 1018.1
07 03:56 SW 11 16.09 Overcast OVC090 -1.7 -2.8 3.9 -1.7 92% -5 76.33 1018.3
07 02:56 SW 9 16.09 Overcast OVC090 -1.1 -2.2 92% -4 76.35 1018.5
07 01:56 S 9 16.09 Overcast OVC090 -0.6 -1.7 92% -3 76.35 1018.5
07 00:56 SW 11 16.09 Overcast OVC090 0.6 -1.7 85% -2 76.33 1018.5
06 23:56 SW 13 16.09 Overcast OVC090 1.1 -2.2 79% -2 76.33 0.0
06 22:56 SW 17 16.09 Mostly Cloudy BKN100 1.7 -2.2 76% -2 76.3 0.0
06 21:56 SW 17 16.09 Mostly Cloudy BKN100 3.9 -1.7 8.3 3.9 67% 0 76.28 0.0
06 20:56 SW 22 16.09 Overcast FEW039 OVC055 6.1 -0.6 63% 3 76.25 0.0
06 19:56 S 17 G 26 16.09 Overcast FEW034 OVC050 6.1 0 65% 3 76.25 0.0
06 18:56 S 17 G 30 16.09 Mostly Cloudy BKN060 5.6 -0.6 65% 3 76.25 0.0
06 17:56 S 19 G 28 16.09 Mostly Cloudy BKN060 7.2 -0.6 58% 4 76.25 0.0
06 16:56 S 19 16.09 Mostly Cloudy SCT048 BKN055 7.2 -1.1 56% 4 76.25 0.0
06 15:56 SE 11 16.09 Overcast OVC055 7.2 -5 42% 5 76.28 0.0
06 14:56 NW 13 16.09 Mostly Cloudy BKN050 7.2 -4.4 44% 5 76.28 0.0
06 13:56 Vrbl 7 16.09 Overcast OVC048 7.2 -4.4 44% 6 76.28 0.0
06 12:56 Vrbl 7 16.09 Light Rain SCT046 5.6 -5 47% 4 76.3 0.0
06 11:56 Calm 16.09 Fair CLR 5 -5.6 47% 76.28 1017.6
06 10:56 E 7 16.09 Fair CLR 3.9 -5 53% 2 76.28 1017.7
06 09:56 N 9 16.09 Fair CLR 2.8 -5 2.8 -1.1 57% 1 76.28 1017.6
06 08:56 NE 11 16.09 Fair CLR 1.7 -4.4 64% -1 76.25 1017.3
06 07:56 N 13 16.09 Fair CLR -0.6 -5 72% -4 76.23 1017.1
06 06:56 N 11 16.09 Fair CLR -1.1 -5.6 72% -5 76.23 1016.8
06 05:56 N 13 16.09 A Few Clouds FEW050 -1.1 -5 75% -5 76.17 1016.4
06 04:56 N 11 16.09 Overcast OVC050 -0.6 -4.4 76% -4 76.17 1016.1
06 03:56 N 15 16.09 Overcast OVC055 0.6 -5 5 0 66% -3 76.12 1015.7
06 02:56 N 13 16.09 Overcast OVC055 0.6 -5 66% -3 76.12 1015.4
06 01:56 N 15 16.09 Overcast OVC060 1.7 -5 61% -2 76.07 1014.9
06 00:56 N 13 16.09 Overcast OVC060 2.2 -5 59% -1 76.05 1014.5
05 23:56 N 11 16.09 Overcast OVC060 2.8 -5 57% 0 76 1013.9
05 22:56 N 11 16.09 Partly Cloudy SCT055 2.8 -5.6 54% 0 75.97 1013.5
05 21:56 N 15 16.09 Overcast SCT050 OVC100 5 -4.4 5.6 3.9 51% 2 75.92 1012.7
05 20:56 N 19 16.09 Overcast OVC095 5.6 -2.8 55% 2 75.87 1012.2
05 19:56 N 13 G 26 16.09 Mostly Cloudy FEW034 SCT070 BKN100 5 -1.7 62% 2 75.84 1011.9
05 18:56 N 20 16.09 Overcast OVC032 5 -0.6 67% 1 75.79 1011.2
05 17:56 N 17 G 28 16.09 Overcast BKN027 OVC031 5 0 70% 2 75.77 1010.7
05 16:56 NW 22 16.09 Light Rain BKN015 BKN023 OVC034 4.4 1.7 83% 0 75.74 1010.3
05 15:56 N 17 16.09 Light Rain BKN013 OVC020 3.9 2.2 4.4 1.7 89% 0 75.69 1009.8 0.03
05 14:56 N 20 16.09 Overcast BKN009 OVC017 4.4 2.2 86% 1 75.67 1009.5
05 13:56 N 17 12.87 Light Rain BKN008 BKN012 OVC017 3.9 2.8 93% 0 75.64 1009.0
05 12:56 N 20 11.27 Light Rain OVC010 3.9 2.8 93% 0 75.59 1008.4 0.03
05 11:56 N 19 16.09 Light Rain OVC010 3.3 2.2 93% -1 75.54 1007.8
05 10:56 N 19 16.09 Light Rain OVC008 2.8 2.2 96% -1 75.49 1007.0 0.03
05 09:56 N 17 16.09 Light Rain OVC006 1.7 1.7 1.7 1.1 100% -2 75.46 1006.6 0.03 0.1
05 08:56 N 13 16.09 Light Rain SCT006 BKN023 OVC036 1.7 1.7 100% -2 75.39 1005.8 0.05
05 07:56 N 19 16.09 Light Rain BKN030 OVC060 1.7 1.7 100% -2 75.31 1004.8
05 06:56 N 17 16.09 Light Rain BKN045 OVC055 1.7 1.1 96% -2 75.26 1004.0 0.03 0.03
05 05:56 N 22 16.09 Light Rain OVC048 1.1 1.1 100% -4 75.23 1003.5
05 04:56 N 20 16.09 Overcast BKN004 OVC060 1.7 1.7 100% -3 75.18 1003.0
05 03:56 N 22 16.09 Overcast BKN004 OVC029 1.7 1.7 3.3 1.7 100% -3 75.16 1002.5 0.03
05 02:56 N 20 16.09 Overcast BKN004 OVC027 2.2 1.7 97% -2 75.11 1002.1
Date Time (akdt) Wind (kph) Vis. (km) Weather Sky Cond. Air Dwpt Max. Min. Relative Humidity Wind Chill (°C) Heat Index (°C) altimeter (cm) sea level (mb) 1 hr 3 hr 6 hr
6 hour
Temperature (ºC) Pressure Precipitation (cm)